Центральная Азия

ЗЦ Центральной Азии - "Азия-Центр" включает в себя пять республик: Казахстан, Кыргызстан, Таджикистан, Туркменистан и Узбекистан.

Зональный Центр обслуживает все аэропорты Центральной Азии по принципу "Top-down"

ЗЦ включает в себя РПИ Актобе, Алматы, Астаны, Ашхабада, Бишкека, Дашогуза, Душанбе, Оша, Самарканда, Ташкента, Туркменабата, Туркменбаши и Шымкента

В сети ВАТСИМ обслуживание воздушного движения над территорией ЗЦ Центральной Азии осуществляет позиция RU-CEN_FSS, позывной "Азия-Центр", частота 132.850.

Лого Центральная Азия
Руководство

Evgeny Vygornitsky

Куратор
FSS региона
Обозначение
RU-CEN_FSS
Позывной
Азия-Центр
Частота
132.850
Примечание
Top-down
Инструкторы региона
Aleksandr Sokolov (Instructor)
Dmitriy Bannov (Instructor)
Evgeny Vygornitsky (Supervisor)
Sergey Balandin (Senior Instructor)
Включает в себя

РПИ Актобе
РПИ Алматы
РПИ Астана
РПИ Ашхабад
РПИ Бишкек
РПИ Дашогуз
РПИ Душанбе
РПИ Ош
РПИ Самарканд
РПИ Ташкент
РПИ Туркменабат
РПИ Туркменбаши
РПИ Шымкент

Диспетчеры региона

Диспетчер Рейтинг Допуски *
Aleksandr Sokolov Instructor UAAA_CTR , UACN_CTR
Anatoly Bajenov Senior Student UTTR_CTR  *
Anatoly Zhilkin Controller UACN_CTR
Dmitriy Bannov Instructor UAAA_CTR , UACN_CTR
Evgeniy Dedyaev Senior Student UTTR_CTR  *
Khurshidjon Ismoilov Senior Student UTTR_CTR  *
Vitaliy Alekseyev Controller UTSD_CTR , UTTR_CTR
Alexandr Belyakov Student 2 UACC_APP*
Alikhan Aidarbek Student UAAA_TWR, UACC_TWR
Alikhan Xansky Student UACC_GND
Arman Maxatov Student 2 UTTT_TWR
Artem Kuzmenko Student 2 UAAA_TWR, UACC_TWR
begench atayev Unknown UTAA_GND
Ilya Potapov Student UAAA_GND, UACC_TWR*, UACC_GND
Kirill Ardatov Senior Student UACC_APP
Maxim Nazyrov Student 2 UAAA_TWR, UACC_TWR, UACC_R_APP*
Mikhail Duzenko Student UACC_GND
Nikita Zikeev Senior Student UTTT_APP
Timofey Abramchuck Senior Student UTTT_GND
Viktor Ivanov Instructor UACC_APP

Аэропорты региона

ICAO Город Название Погода
UAAA Алматы Алматы UAAA 221200Z 30003MPS 270V330 9999 FEW050 24/12 Q1014 NOSIG
UACC Астана Астана UACC 221200Z 08008MPS 9999 SCT040 21/03 Q1023 NOSIG RMK QFE736/0981
UCFM Бишкек Манас UCFM 221200Z 24005MPS CAVOK 24/09 Q1014 NOSIG
UAKK Караганда Караганда UAKK 221200Z 04010MPS CAVOK 22/09 Q1021 NOSIG RMK QFE718/0958
UTTT Ташкент Ташкент UTTT 221200Z 16006KT 9999 SCT066CB 25/14 Q1014 R08R/CLRD70 NOSIG
UATT Актобе Актобе UATT 221200Z 11009MPS CAVOK 27/08 Q1018 NOSIG RMK QFE744/0992
UATG Атырау Атырау UATG 221200Z 09007MPS 9999 FEW033CB 31/04 Q1011 NOSIG RMK QFE760/1013
UTAA Ашхабад Ашхабад UTAA 221200Z 24008KT 9999 FEW050CB FEW050 BKN100 31/01 Q1011 R88/70D NOSIG
UTSB Бухара Бухара UTSB 221200Z 19006KT 140V230 9999 SCT050CB 31/05 Q1011 R19/CLRD70 NOSIG
UTAT Дашогуз Дашогуз UTAT 221200Z 24012KT 220V280 CAVOK 33/02 Q1010 R08/CLRD70 NOSIG
UTDD Душанбе Душанбе UTDD 221200Z 10004MPS 9999 FEW066CB 23/14 Q1015 R09/D NOSIG RMK QFE693/0924
UAKD Жезказган Жезказган UAKD 221200Z 08011MPS CAVOK 25/05 Q1017 NOSIG RMK QFE729/0972
UACK Кокшетау Кокшетау UACK 221200Z 05002MPS 360V100 CAVOK 19/M04 Q1025 NOSIG RMK QFE745/0993
UAUU Костанай Костанай UAUU 221200Z 05004MPS 030V090 CAVOK 25/11 Q1024 NOSIG RMK QFE751/1002
UTAM Мары Мары UTAM 221200Z 14004KT CAVOK 34/05 Q1009 R88/CLRD70 NOSIG
UCFO Ош Ош UCFO 221200Z 22002MPS 190V250 9999 FEW050CB 21/14 Q1015 NOSIG
UASP Павлодар Павлодар UASP 221200Z 36007MPS CAVOK 17/M03 Q1023 NOSIG RMK QFE757/1009
UACP Петропавловск Петропавловск UACP 221200Z 31003MPS 260V350 CAVOK 18/M01 Q1026 NOSIG RMK QFE756/1009
UTSS Самарканд Самарканд UTSS 221200Z 32004KT 260V040 9999 SCT066CB 26/09 Q1014 R27/CLRD70 NOSIG
UTST Термез Термез UTST 221200Z 22004KT 180V250 CAVOK 31/06 Q1011 R25/CLRD70 NOSIG
UTAV Туркменабад Туркменабат UTAV 221200Z 05010KT CAVOK 32/03 Q1010 R31/CLRD70 NOSIG
UTAK Туркменбаши Туркменбаши UTAK 221200Z 32012KT CAVOK 24/10 Q1014 R34L/CLRD70 NOSIG
UARR Уральск Уральск UARR 221200Z 12008MPS CAVOK 28/08 Q1016 NOSIG RMK QFE758/1011
UTNU Ургенч Ургенч UTNU 221200Z 27006KT CAVOK 32/02 Q1010 R31/CLRD70 NOSIG
UTDL Худжанд Худжанд UTDL 221200Z 05002MPS 010V080 9999 FEW060CB BKN086 25/08 Q1014 R08/CLRD70 NOSIG RMK QFE722/0962
UAII Шымкент Шымкент UAII 221200Z 19004MPS 9999 SCT050CB 25/15 Q1013 RETS NOSIG RMK QFE723/0964
UTFA Андижан Андижан
UCFL Иссык-Куль Иссык-Куль UCFL 221200Z VRB01MPS 9999 SCT030CB 17/01 Q1017
UCFP Каракол Каракол
UTSK Карши Карши-Ханабад UTSK 221200Z 31004KT 270V330 CAVOK 30/04 Q1012 R16/CLRD70
UTSA Навои Навои UTSA 221200Z 25004KT 9999 NSC 30/M00 Q1013 R25/CLRD70 NOSIG
UTFN Наманган Наманган UTFN 221200Z 31006KT 280V350 9999 BKN050CB 23/13 Q1013 R28/290160 TEMPO 28026G36 TSRA OVC020CB
UTNN Нукус Нукус UTNN 221200Z 23008KT CAVOK 33/01 Q1009 R15/CLRD60 NOSIG
UTFF Фергана Фергана UTFF 221200Z 17008KT 9999 SCT050CB 23/11 Q1014 R18/CLRD70